createdAt,value
2019-02-06T00:02:10.215Z,2.40
2019-02-06T00:04:39.821Z,2.40
2019-02-06T00:07:09.222Z,2.40
2019-02-06T00:09:38.581Z,2.40
2019-02-06T00:12:08.256Z,2.40
2019-02-06T00:14:37.845Z,2.30
2019-02-06T00:17:07.455Z,2.30
2019-02-06T00:19:37.095Z,2.30
2019-02-06T00:22:08.737Z,2.20
2019-02-06T00:24:38.184Z,2.20
2019-02-06T00:27:07.787Z,2.20
2019-02-06T00:29:37.159Z,2.20
2019-02-06T00:32:07.055Z,2.20
2019-02-06T00:34:36.671Z,2.20
2019-02-06T00:37:06.216Z,2.20
2019-02-06T00:39:36.057Z,2.20
2019-02-06T00:42:05.497Z,2.20
2019-02-06T00:44:45.302Z,2.20
2019-02-06T00:47:14.937Z,2.20
2019-02-06T00:49:44.302Z,2.20
2019-02-06T00:52:13.909Z,2.20
2019-02-06T00:54:43.287Z,2.20
2019-02-06T00:57:13.038Z,2.20
2019-02-06T00:59:42.412Z,2.20
2019-02-06T01:02:11.919Z,2.10
2019-02-06T01:04:41.287Z,2.10
2019-02-06T01:07:10.663Z,2.10
2019-02-06T01:09:40.035Z,2.10
2019-02-06T01:12:09.812Z,2.10
2019-02-06T01:14:40.094Z,2.10
2019-02-06T01:17:09.639Z,2.00
2019-02-06T01:19:39.034Z,2.00
2019-02-06T01:22:08.394Z,2.00
2019-02-06T01:24:38.089Z,2.00
2019-02-06T01:27:07.459Z,2.00
2019-02-06T01:29:36.830Z,2.00
2019-02-06T01:32:06.209Z,2.00
2019-02-06T01:34:35.586Z,2.00
2019-02-06T01:37:05.022Z,2.00
2019-02-06T01:39:34.398Z,2.00
2019-02-06T01:42:03.767Z,1.90
2019-02-06T01:44:33.421Z,1.90
2019-02-06T01:47:02.864Z,1.90
2019-02-06T01:49:32.225Z,1.90
2019-02-06T01:52:01.591Z,1.80
2019-02-06T01:54:30.962Z,1.80
2019-02-06T01:57:00.332Z,1.80
2019-02-06T01:59:29.984Z,1.70
2019-02-06T02:01:59.355Z,1.60
2019-02-06T02:04:28.729Z,1.60
2019-02-06T02:06:58.098Z,1.60
2019-02-06T02:09:27.483Z,1.50
2019-02-06T02:11:56.850Z,1.50
2019-02-06T02:14:26.676Z,1.50
2019-02-06T02:16:56.054Z,1.50
2019-02-06T02:19:25.812Z,1.50
2019-02-06T02:21:56.837Z,1.40
2019-02-06T02:24:26.242Z,1.40
2019-02-06T02:26:55.611Z,1.50
2019-02-06T02:29:25.278Z,1.50
2019-02-06T02:31:54.716Z,1.50
2019-02-06T02:34:24.083Z,1.50
2019-02-06T02:36:53.479Z,1.50
2019-02-06T02:39:22.853Z,1.50
2019-02-06T02:41:52.288Z,1.50
2019-02-06T02:44:22.106Z,1.50
2019-02-06T02:46:51.499Z,1.50
2019-02-06T02:49:22.064Z,1.50
2019-02-06T02:51:51.460Z,1.50
2019-02-06T02:54:20.847Z,1.50
2019-02-06T02:56:50.334Z,1.50
2019-02-06T02:59:19.875Z,1.50
2019-02-06T03:01:56.678Z,1.60
2019-02-06T03:04:27.417Z,1.60
2019-02-06T03:06:56.821Z,1.60
2019-02-06T03:09:26.200Z,1.60
2019-02-06T03:11:55.973Z,1.60
2019-02-06T03:14:25.342Z,1.50
2019-02-06T03:16:54.774Z,1.50
2019-02-06T03:19:24.854Z,1.50
2019-02-06T03:21:54.321Z,1.40
2019-02-06T03:24:23.695Z,1.40
2019-02-06T03:26:54.300Z,1.40
2019-02-06T03:29:23.672Z,1.40
2019-02-06T03:31:53.325Z,1.40
2019-02-06T03:34:22.696Z,1.40
2019-02-06T03:36:52.085Z,1.40
2019-02-06T03:39:21.819Z,1.40
2019-02-06T03:41:51.498Z,1.40
2019-02-06T03:44:20.909Z,1.40
2019-02-06T03:46:51.301Z,1.40
2019-02-06T03:49:20.691Z,1.40
2019-02-06T03:51:50.358Z,1.50
2019-02-06T03:54:19.729Z,1.80
2019-02-06T03:56:49.636Z,1.50
2019-02-06T03:59:19.029Z,1.50
2019-02-06T04:01:48.436Z,1.50
2019-02-06T04:04:17.825Z,1.50
2019-02-06T04:06:55.138Z,1.50
2019-02-06T04:09:18.297Z,1.50
2019-02-06T04:11:48.078Z,1.50
2019-02-06T04:14:17.733Z,1.50
2019-02-06T04:16:47.111Z,1.60
2019-02-06T04:19:16.498Z,1.60
2019-02-06T04:21:46.370Z,1.60
2019-02-06T04:24:15.727Z,1.60
2019-02-06T04:26:45.316Z,1.60
2019-02-06T04:29:14.694Z,1.60
2019-02-06T04:32:03.673Z,1.60
2019-02-06T04:34:33.343Z,1.60
2019-02-06T04:37:06.839Z,1.60
2019-02-06T04:39:34.206Z,1.60
2019-02-06T04:42:04.599Z,1.60
2019-02-06T04:44:33.958Z,1.60
2019-02-06T04:47:04.233Z,1.60
2019-02-06T04:49:33.608Z,1.70
2019-02-06T04:52:03.254Z,1.70
2019-02-06T04:54:32.621Z,1.80
2019-02-06T04:57:01.996Z,1.80
2019-02-06T04:59:31.371Z,1.80
2019-02-06T05:02:00.751Z,1.80
2019-02-06T05:04:30.364Z,1.90
2019-02-06T05:07:00.075Z,1.80
2019-02-06T05:09:29.461Z,1.80
2019-02-06T05:11:58.838Z,1.90
2019-02-06T05:14:28.210Z,1.90
2019-02-06T05:16:57.601Z,1.90
2019-02-06T05:19:26.981Z,1.90
2019-02-06T05:21:56.355Z,1.90
2019-02-06T05:24:25.973Z,1.90
2019-02-06T05:26:55.344Z,1.90
2019-02-06T05:29:24.949Z,1.90
2019-02-06T05:31:54.309Z,1.90
2019-02-06T05:34:23.758Z,1.90
2019-02-06T05:36:53.242Z,1.90
2019-02-06T05:39:22.598Z,2.00
2019-02-06T05:41:52.201Z,2.00
2019-02-06T05:44:21.589Z,2.00
2019-02-06T05:46:50.943Z,2.00
2019-02-06T05:49:20.311Z,2.00
2019-02-06T05:51:49.676Z,2.00
2019-02-06T05:54:19.334Z,2.00
2019-02-06T05:56:48.701Z,2.00
2019-02-06T05:59:18.192Z,2.00
2019-02-06T06:01:47.593Z,2.00
2019-02-06T06:04:17.080Z,2.00
2019-02-06T06:06:46.506Z,2.00
2019-02-06T06:09:17.929Z,2.10
2019-02-06T06:11:47.526Z,2.10
2019-02-06T06:14:16.904Z,2.20
2019-02-06T06:16:46.264Z,2.40
2019-02-06T06:19:15.658Z,2.40
2019-02-06T06:21:45.072Z,2.40
2019-02-06T06:24:15.430Z,2.40
2019-02-06T06:26:44.800Z,2.50
2019-02-06T06:29:14.171Z,2.50
2019-02-06T06:31:43.553Z,2.60
2019-02-06T06:34:13.022Z,2.60
2019-02-06T06:36:42.433Z,2.60
2019-02-06T06:39:14.750Z,2.60
2019-02-06T06:41:44.144Z,2.60
2019-02-06T06:44:13.599Z,2.60
2019-02-06T06:46:42.989Z,2.60
2019-02-06T06:49:15.294Z,2.60
2019-02-06T06:51:44.693Z,2.60
2019-02-06T06:54:14.497Z,2.60
2019-02-06T06:56:43.965Z,2.60
2019-02-06T06:59:13.370Z,2.60
2019-02-06T07:01:42.976Z,2.60
2019-02-06T07:04:12.347Z,2.70
2019-02-06T07:06:41.733Z,2.70
2019-02-06T07:09:11.624Z,2.80
2019-02-06T07:11:41.024Z,2.80
2019-02-06T07:14:10.426Z,2.90
2019-02-06T07:16:59.141Z,3.00
2019-02-06T07:19:28.504Z,3.00
2019-02-06T07:21:57.900Z,2.90
2019-02-06T07:24:27.276Z,3.10
2019-02-06T07:26:56.654Z,3.10
2019-02-06T07:29:26.029Z,3.10
2019-02-06T07:31:55.399Z,3.20
2019-02-06T07:34:24.836Z,3.20
2019-02-06T07:36:54.210Z,3.20
2019-02-06T07:39:23.641Z,3.30
2019-02-06T07:41:53.361Z,3.30
2019-02-06T07:44:22.709Z,3.40
2019-02-06T07:46:52.085Z,3.40
2019-02-06T07:49:21.708Z,3.60
2019-02-06T07:51:51.164Z,3.50
2019-02-06T07:54:20.866Z,3.60
2019-02-06T07:56:50.265Z,3.60
2019-02-06T07:59:19.642Z,3.70
2019-02-06T08:01:49.029Z,3.70
2019-02-06T08:04:18.398Z,3.80
2019-02-06T08:06:48.043Z,3.90
2019-02-06T08:09:17.650Z,4.00
2019-02-06T08:11:47.017Z,4.10
2019-02-06T08:14:16.695Z,4.20
2019-02-06T08:16:46.070Z,4.30
2019-02-06T08:19:15.461Z,4.50
2019-02-06T08:21:45.251Z,4.50
2019-02-06T08:24:14.661Z,4.60
2019-02-06T08:26:43.991Z,4.70
2019-02-06T08:29:13.383Z,4.80
2019-02-06T08:31:42.819Z,4.90
2019-02-06T08:34:12.171Z,5.00
2019-02-06T08:36:41.931Z,5.10
2019-02-06T08:39:11.306Z,5.20
2019-02-06T08:41:40.847Z,5.30
2019-02-06T08:44:10.213Z,5.40
2019-02-06T08:46:39.592Z,5.50
2019-02-06T08:49:11.008Z,5.60
2019-02-06T08:51:40.667Z,5.70
2019-02-06T08:54:10.042Z,5.70
2019-02-06T08:56:39.422Z,5.90
2019-02-06T08:59:09.196Z,6.00
2019-02-06T09:01:38.617Z,6.20
2019-02-06T09:04:08.064Z,6.40
2019-02-06T09:06:37.697Z,6.70
2019-02-06T09:09:09.974Z,6.90
2019-02-06T09:11:39.437Z,7.20
2019-02-06T09:14:09.223Z,7.50
2019-02-06T09:16:38.823Z,7.80
2019-02-06T09:19:08.195Z,8.00
2019-02-06T09:21:37.644Z,8.30
2019-02-06T09:24:07.053Z,8.50
2019-02-06T09:26:36.398Z,8.70
2019-02-06T09:29:06.168Z,8.90
2019-02-06T09:31:36.544Z,9.20
2019-02-06T09:34:05.930Z,9.20
2019-02-06T09:36:35.474Z,9.50
2019-02-06T09:39:11.654Z,9.60
2019-02-06T09:41:40.040Z,9.70
2019-02-06T09:44:09.923Z,9.80
2019-02-06T09:46:39.287Z,9.90
2019-02-06T09:49:08.715Z,9.90
2019-02-06T09:51:38.083Z,9.90
2019-02-06T09:54:07.704Z,9.90
2019-02-06T09:56:37.076Z,9.90
2019-02-06T09:59:06.537Z,9.90
2019-02-06T10:01:37.050Z,9.90
2019-02-06T10:04:06.451Z,10.20
2019-02-06T10:06:35.895Z,9.90
2019-02-06T10:09:08.047Z,9.90
2019-02-06T10:11:37.456Z,9.90
2019-02-06T10:14:06.793Z,10.00
2019-02-06T10:16:36.174Z,10.00
2019-02-06T10:19:05.621Z,10.00
2019-02-06T10:21:35.003Z,10.10
2019-02-06T10:24:04.477Z,10.20
2019-02-06T10:26:33.836Z,10.20
2019-02-06T10:29:03.281Z,10.30
2019-02-06T10:31:33.030Z,10.40
2019-02-06T10:34:02.572Z,10.50
2019-02-06T10:36:31.958Z,10.60
2019-02-06T10:39:01.335Z,10.70
2019-02-06T10:41:31.850Z,10.70
2019-02-06T10:44:01.352Z,10.80
2019-02-06T10:46:31.069Z,10.90
2019-02-06T10:49:00.453Z,10.90
2019-02-06T10:51:29.918Z,11.00
2019-02-06T10:53:59.313Z,11.10
2019-02-06T10:56:28.693Z,11.20
2019-02-06T10:58:58.060Z,11.30
2019-02-06T11:01:28.712Z,11.40
2019-02-06T11:03:58.084Z,11.50
2019-02-06T11:06:27.526Z,11.60
2019-02-06T11:08:56.908Z,11.70
2019-02-06T11:11:26.298Z,11.90
2019-02-06T11:13:55.672Z,12.00
2019-02-06T11:16:25.125Z,12.20
2019-02-06T11:18:54.508Z,12.40
2019-02-06T11:21:24.046Z,12.50
2019-02-06T11:23:53.429Z,12.80
2019-02-06T11:26:22.813Z,12.90
2019-02-06T11:28:52.181Z,13.20
2019-02-06T11:31:21.633Z,13.40
2019-02-06T11:33:50.995Z,13.60
2019-02-06T11:36:24.232Z,13.80
2019-02-06T11:38:51.867Z,14.10
2019-02-06T11:41:21.244Z,14.30
2019-02-06T11:43:50.924Z,14.40
2019-02-06T11:46:20.304Z,14.50
2019-02-06T11:48:49.678Z,14.50
2019-02-06T11:51:20.196Z,14.50
2019-02-06T11:53:49.581Z,14.40
2019-02-06T11:56:18.957Z,14.40
2019-02-06T11:58:48.329Z,14.30
2019-02-06T12:01:19.343Z,14.10
2019-02-06T12:03:48.718Z,14.00
2019-02-06T12:06:18.141Z,13.80
2019-02-06T12:08:47.516Z,13.70
2019-02-06T12:11:17.355Z,13.60
2019-02-06T12:13:46.805Z,13.60
2019-02-06T12:16:16.451Z,13.60
2019-02-06T12:18:45.795Z,13.60
2019-02-06T12:21:17.922Z,13.60
2019-02-06T12:23:46.280Z,13.70
2019-02-06T12:26:15.714Z,13.70
2019-02-06T12:28:45.089Z,13.80
2019-02-06T12:31:14.684Z,13.90
2019-02-06T12:33:44.070Z,13.90
2019-02-06T12:36:15.826Z,13.90
2019-02-06T12:38:52.978Z,14.00
2019-02-06T12:41:16.144Z,13.90
2019-02-06T12:43:45.878Z,13.90
2019-02-06T12:46:15.250Z,13.90
2019-02-06T12:48:45.615Z,13.90
2019-02-06T12:51:14.998Z,13.90
2019-02-06T12:53:44.379Z,13.80
2019-02-06T12:56:13.851Z,13.80
2019-02-06T12:58:43.211Z,13.70
2019-02-06T13:01:12.928Z,13.70
2019-02-06T13:03:42.339Z,13.70
2019-02-06T13:06:11.726Z,13.60
2019-02-06T13:08:41.304Z,13.50
2019-02-06T13:11:12.205Z,13.40
2019-02-06T13:13:41.576Z,13.40
2019-02-06T13:16:10.973Z,13.30
2019-02-06T13:18:40.695Z,13.30
2019-02-06T13:21:16.978Z,13.30
2019-02-06T13:23:49.390Z,13.30
2019-02-06T13:26:18.579Z,13.30
2019-02-06T13:28:47.966Z,13.30
2019-02-06T13:31:17.353Z,13.30
2019-02-06T13:33:46.987Z,13.30
2019-02-06T13:36:17.638Z,13.30
2019-02-06T13:38:47.022Z,13.30
2019-02-06T13:41:16.427Z,13.30
2019-02-06T13:43:45.856Z,13.30
2019-02-06T13:46:15.247Z,13.30
2019-02-06T13:48:44.639Z,13.30
2019-02-06T13:51:16.552Z,13.20
2019-02-06T13:53:45.591Z,13.20
2019-02-06T13:56:15.331Z,13.20
2019-02-06T13:58:44.730Z,13.10
2019-02-06T14:01:25.114Z,13.10
2019-02-06T14:03:56.756Z,13.10
2019-02-06T14:06:26.311Z,13.10
2019-02-06T14:08:55.697Z,13.00
2019-02-06T14:11:25.352Z,13.10
2019-02-06T14:13:54.766Z,13.10
2019-02-06T14:16:43.447Z,13.10
2019-02-06T14:19:13.127Z,13.10
2019-02-06T14:21:42.496Z,13.20
2019-02-06T14:24:22.591Z,13.20
2019-02-06T14:26:59.463Z,13.20
2019-02-06T14:29:45.174Z,13.30
2019-02-06T14:32:21.737Z,13.30
2019-02-06T14:35:29.790Z,13.30
2019-02-06T14:38:31.096Z,13.40
2019-02-06T14:41:08.839Z,13.40
2019-02-06T14:44:00.337Z,13.50
2019-02-06T14:46:56.482Z,13.60
2019-02-06T14:49:51.134Z,13.60
2019-02-06T14:52:45.898Z,13.60
2019-02-06T14:55:25.462Z,13.60
2019-02-06T14:58:22.275Z,13.60
2019-02-06T15:01:14.216Z,13.50
2019-02-06T15:04:10.154Z,13.50
2019-02-06T15:07:19.501Z,13.40
2019-02-06T15:10:25.696Z,13.30
2019-02-06T15:13:33.110Z,13.20
2019-02-06T15:16:34.027Z,13.20
2019-02-06T15:19:19.824Z,13.10
2019-02-06T15:22:11.889Z,13.00
2019-02-06T15:24:54.508Z,12.90
2019-02-06T15:27:59.813Z,12.80
2019-02-06T15:30:42.495Z,12.70
2019-02-06T15:33:34.354Z,12.70
2019-02-06T15:36:17.379Z,12.60
2019-02-06T15:38:56.737Z,12.50
2019-02-06T15:41:42.763Z,12.40
2019-02-06T15:44:22.768Z,12.30
2019-02-06T15:47:25.572Z,12.30
2019-02-06T15:50:14.281Z,12.20
2019-02-06T15:53:02.649Z,12.20
2019-02-06T15:56:01.189Z,12.10
2019-02-06T15:58:41.596Z,12.10
2019-02-06T16:01:35.737Z,12.20
2019-02-06T16:04:30.348Z,12.10
2019-02-06T16:07:26.980Z,12.10
2019-02-06T16:10:26.961Z,12.00
2019-02-06T16:13:03.548Z,11.90
2019-02-06T16:16:09.644Z,11.90
2019-02-06T16:18:43.645Z,11.90
2019-02-06T16:21:27.625Z,12.20
2019-02-06T16:24:25.550Z,11.80
2019-02-06T16:27:14.347Z,11.80
2019-02-06T16:30:00.340Z,11.80
2019-02-06T16:32:41.271Z,11.70
2019-02-06T16:35:37.322Z,11.80
2019-02-06T16:38:27.670Z,11.70
2019-02-06T16:41:37.752Z,11.60
2019-02-06T16:44:29.325Z,11.60
2019-02-06T16:47:15.538Z,11.50
2019-02-06T16:50:13.862Z,11.50
2019-02-06T16:52:57.655Z,11.40
2019-02-06T16:55:55.873Z,11.30
2019-02-06T16:59:00.631Z,11.30
2019-02-06T17:01:40.402Z,11.20
2019-02-06T17:04:29.335Z,11.30
2019-02-06T17:07:12.358Z,11.10
2019-02-06T17:09:52.284Z,11.10
2019-02-06T17:12:28.692Z,11.00
2019-02-06T17:15:08.201Z,11.00
2019-02-06T17:17:51.561Z,11.00
2019-02-06T17:20:44.795Z,10.90
2019-02-06T17:23:47.780Z,10.90
2019-02-06T17:26:33.545Z,10.90
2019-02-06T17:29:13.266Z,10.90
2019-02-06T17:32:14.708Z,10.90
2019-02-06T17:35:01.179Z,10.80
2019-02-06T17:37:40.727Z,10.80
2019-02-06T17:40:23.905Z,10.80
2019-02-06T17:43:18.623Z,10.80
2019-02-06T17:46:12.229Z,10.80
2019-02-06T17:49:13.406Z,10.70
2019-02-06T17:52:14.682Z,10.70
2019-02-06T17:55:17.703Z,10.70
2019-02-06T17:57:55.748Z,10.70
2019-02-06T18:00:32.951Z,10.70
2019-02-06T18:03:07.857Z,10.70
2019-02-06T18:05:40.115Z,10.80
2019-02-06T18:08:15.278Z,10.70
2019-02-06T18:10:49.999Z,10.70
2019-02-06T18:13:56.004Z,10.70
2019-02-06T18:16:29.245Z,10.70
2019-02-06T18:19:05.654Z,10.80
2019-02-06T18:21:54.443Z,10.80
2019-02-06T18:24:23.892Z,10.80
2019-02-06T18:26:54.360Z,10.80
2019-02-06T18:29:23.806Z,10.70
2019-02-06T18:31:53.259Z,10.70
2019-02-06T18:34:22.625Z,10.70
2019-02-06T18:36:52.067Z,10.70
2019-02-06T18:39:21.734Z,10.70
2019-02-06T18:41:51.465Z,10.70
2019-02-06T18:44:20.974Z,10.70
2019-02-06T18:46:53.332Z,10.60
2019-02-06T18:49:23.024Z,10.60
2019-02-06T18:51:52.558Z,10.60
2019-02-06T18:54:22.016Z,10.60
2019-02-06T18:56:51.397Z,10.60
2019-02-06T18:59:21.817Z,10.50
2019-02-06T19:01:51.608Z,10.50
2019-02-06T19:04:20.970Z,10.50
2019-02-06T19:06:50.575Z,10.50
2019-02-06T19:09:20.218Z,10.50
2019-02-06T19:11:49.668Z,10.40
2019-02-06T19:14:19.545Z,10.40
2019-02-06T19:16:49.063Z,10.40
2019-02-06T19:19:25.173Z,10.40
2019-02-06T19:21:49.815Z,10.40
2019-02-06T19:24:19.458Z,10.40
2019-02-06T19:26:48.918Z,10.40
2019-02-06T19:29:18.280Z,10.40
2019-02-06T19:31:47.727Z,10.40
2019-02-06T19:34:17.415Z,10.40
2019-02-06T19:36:46.790Z,10.40
2019-02-06T19:39:16.168Z,10.30
2019-02-06T19:41:45.532Z,10.30
2019-02-06T19:44:15.305Z,10.30
2019-02-06T19:46:44.670Z,10.30
2019-02-06T19:49:14.047Z,10.30
2019-02-06T19:51:43.410Z,10.30
2019-02-06T19:54:13.096Z,10.30
2019-02-06T19:56:42.507Z,10.30
2019-02-06T19:59:11.989Z,10.30
2019-02-06T20:01:41.596Z,10.20
2019-02-06T20:04:11.377Z,10.30
2019-02-06T20:06:40.699Z,10.20
2019-02-06T20:09:10.407Z,10.20
2019-02-06T20:11:39.955Z,10.20
2019-02-06T20:14:09.959Z,10.20
2019-02-06T20:16:39.386Z,10.20
2019-02-06T20:19:08.795Z,10.20
2019-02-06T20:21:38.258Z,10.20
2019-02-06T20:24:08.249Z,10.10
2019-02-06T20:26:37.602Z,10.10
2019-02-06T20:29:07.058Z,10.10
2019-02-06T20:31:38.060Z,10.10
2019-02-06T20:34:07.410Z,10.00
2019-02-06T20:36:36.866Z,10.40
2019-02-06T20:39:08.047Z,10.00
2019-02-06T20:41:37.456Z,10.00
2019-02-06T20:44:06.906Z,10.00
2019-02-06T20:46:36.513Z,10.00
2019-02-06T20:49:07.963Z,10.00
2019-02-06T20:51:37.447Z,10.00
2019-02-06T20:54:06.973Z,9.90
2019-02-06T20:56:36.381Z,9.90
2019-02-06T20:59:05.933Z,9.90
2019-02-06T21:01:35.420Z,9.80
2019-02-06T21:04:05.139Z,9.80
2019-02-06T21:06:34.504Z,9.80
2019-02-06T21:09:05.542Z,9.70
2019-02-06T21:11:34.966Z,9.70
2019-02-06T21:14:04.606Z,9.70
2019-02-06T21:16:34.002Z,9.70
2019-02-06T21:19:04.906Z,9.60
2019-02-06T21:21:38.024Z,9.60
2019-02-06T21:24:07.821Z,9.60
2019-02-06T21:26:37.216Z,9.60
2019-02-06T21:29:09.619Z,9.70
2019-02-06T21:31:39.003Z,9.70
2019-02-06T21:34:08.406Z,9.70
2019-02-06T21:36:37.819Z,9.70
2019-02-06T21:39:10.964Z,9.70
2019-02-06T21:41:40.354Z,9.70
2019-02-06T21:44:10.727Z,9.70
2019-02-06T21:46:40.113Z,9.70
2019-02-06T21:49:09.750Z,9.70
2019-02-06T21:51:39.146Z,9.80
2019-02-06T21:54:08.801Z,9.70
2019-02-06T21:56:38.198Z,9.80
2019-02-06T21:59:12.234Z,9.80
2019-02-06T22:01:41.598Z,9.80
2019-02-06T22:07:40.720Z,9.80
2019-02-06T22:10:15.199Z,9.80
2019-02-06T22:12:44.612Z,9.80
2019-02-06T22:15:24.128Z,9.80
2019-02-06T22:17:53.796Z,9.90
2019-02-06T22:20:23.494Z,9.90
2019-02-06T22:22:52.879Z,9.90
2019-02-06T22:25:25.073Z,9.90
2019-02-06T22:27:54.702Z,9.90
2019-02-06T22:30:29.994Z,9.90
2019-02-06T22:32:59.431Z,9.90
2019-02-06T22:35:28.878Z,9.90
2019-02-06T22:37:58.296Z,9.90
2019-02-06T22:40:27.928Z,9.90
2019-02-06T22:42:59.090Z,9.90
2019-02-06T22:45:31.414Z,10.00
2019-02-06T22:48:02.086Z,10.00
2019-02-06T22:50:36.494Z,10.00
2019-02-06T22:53:06.000Z,10.00
2019-02-06T22:55:35.404Z,10.00
2019-02-06T22:58:05.318Z,10.00
2019-02-06T23:01:01.942Z,10.00
2019-02-06T23:03:37.577Z,10.00
2019-02-06T23:06:07.711Z,10.00
2019-02-06T23:08:37.167Z,10.00
2019-02-06T23:11:07.019Z,10.00
2019-02-06T23:13:37.386Z,10.00
2019-02-06T23:16:07.185Z,10.00
2019-02-06T23:18:36.551Z,10.10
2019-02-06T23:21:06.758Z,10.10
2019-02-06T23:23:36.836Z,10.10
2019-02-06T23:26:06.463Z,10.10
2019-02-06T23:28:35.943Z,10.10
2019-02-06T23:31:05.382Z,10.10
2019-02-06T23:33:34.842Z,10.10
2019-02-06T23:36:04.806Z,10.10
2019-02-06T23:38:34.450Z,10.10
2019-02-06T23:41:05.610Z,10.10
2019-02-06T23:43:35.249Z,10.10
2019-02-06T23:46:05.219Z,10.10
2019-02-06T23:48:34.600Z,10.10
2019-02-06T23:51:04.059Z,10.10
2019-02-06T23:53:33.429Z,10.10
2019-02-06T23:56:02.836Z,10.10
2019-02-06T23:58:32.296Z,10.10
